Time;durP1;ratioP1;P1;durP2;ratioP2;P2;SDS_P1;SDS_P2;PMS_P1;PMS_P2;Temp;Humidity;BMP_temperature;BMP_pressure;BME280_temperature;BME280_humidity;BME280_pressure;Samples;Min_cycle;Max_cycle;Signal;HPM_P1;HPM_P2
2022/09/11 00:01:51;;;;;;;;;;;23.90;56.30;;;;;;6109671;28;19926;-39
2022/09/11 00:04:54;;;;;;;;;;;23.80;56.20;;;;;;6111571;28;19937;-40
2022/09/11 00:07:55;;;;;;;;;;;23.80;56.30;;;;;;6111284;28;20130;-39
2022/09/11 00:11:01;;;;;;;;;;;24.10;56.60;;;;;;6111299;28;19941;-41
2022/09/11 00:14:03;;;;;;;;;;;23.90;56.30;;;;;;6116385;28;20043;-39
2022/09/11 00:17:04;;;;;;;;;;;23.90;56.30;;;;;;6113488;28;19956;-40
2022/09/11 00:20:06;;;;;;;;;;;24.00;56.40;;;;;;6119015;28;19930;-41
2022/09/11 00:23:07;;;;;;;;;;;23.90;56.40;;;;;;6114888;28;19938;-40
2022/09/11 00:26:09;;;;;;;;;;;24.00;56.50;;;;;;6108498;28;19969;-41
2022/09/11 00:29:11;;;;;;;;;;;23.80;56.40;;;;;;6114671;28;19941;-40
2022/09/11 00:32:14;;;;;;;;;;;24.10;56.50;;;;;;6110694;28;19934;-39
2022/09/11 00:35:15;;;;;;;;;;;23.80;56.40;;;;;;6114077;28;19993;-41
2022/09/11 00:38:17;;;;;;;;;;;23.70;56.40;;;;;;6113525;28;19934;-39
2022/09/11 00:41:20;;;;;;;;;;;23.90;56.50;;;;;;6113054;28;19934;-39
2022/09/11 00:44:36;;;;;;;;;;;24.00;56.50;;;;;;6113147;28;19937;-39
2022/09/11 00:47:42;;;;;;;;;;;23.90;56.60;;;;;;6115230;28;21883;-39
2022/09/11 00:50:43;;;;;;;;;;;23.80;56.50;;;;;;6113283;28;19937;-40
2022/09/11 00:53:45;;;;;;;;;;;23.70;56.50;;;;;;6115032;28;20852;-38
2022/09/11 00:56:47;;;;;;;;;;;24.00;56.60;;;;;;6111891;28;19942;-40
2022/09/11 00:59:54;;;;;;;;;;;23.80;56.60;;;;;;6116030;28;19982;-39
2022/09/11 01:02:57;;;;;;;;;;;23.80;56.50;;;;;;6117724;28;20044;-40
2022/09/11 01:05:58;;;;;;;;;;;23.70;56.50;;;;;;6115175;28;20092;-39
2022/09/11 01:08:59;;;;;;;;;;;23.80;56.60;;;;;;6116183;28;19942;-39
2022/09/11 01:12:04;;;;;;;;;;;23.90;56.60;;;;;;6117488;28;19980;-39
2022/09/11 01:15:06;;;;;;;;;;;24.00;56.70;;;;;;6114758;28;20975;-39
2022/09/11 01:18:13;;;;;;;;;;;24.00;56.70;;;;;;6111722;28;19933;-40
2022/09/11 01:21:25;;;;;;;;;;;23.80;56.70;;;;;;6118323;28;19988;-40
2022/09/11 01:24:41;;;;;;;;;;;23.80;56.60;;;;;;6113533;28;19953;-38
2022/09/11 01:27:44;;;;;;;;;;;23.70;56.60;;;;;;6114821;28;20080;-40
2022/09/11 01:30:49;;;;;;;;;;;23.60;56.60;;;;;;6115815;28;19969;-39
2022/09/11 01:33:55;;;;;;;;;;;23.90;56.70;;;;;;6113925;28;19930;-39
2022/09/11 01:36:58;;;;;;;;;;;23.70;56.60;;;;;;6116468;28;19937;-39
2022/09/11 01:40:02;;;;;;;;;;;23.60;56.50;;;;;;6116855;28;19941;-40
2022/09/11 01:43:08;;;;;;;;;;;24.00;56.70;;;;;;6113786;28;19934;-40
2022/09/11 01:46:12;;;;;;;;;;;24.00;56.80;;;;;;6107627;28;20020;-39
2022/09/11 01:49:15;;;;;;;;;;;23.90;56.70;;;;;;6128745;28;20008;-40
2022/09/11 01:52:18;;;;;;;;;;;23.80;56.70;;;;;;6112327;28;19938;-41
2022/09/11 01:55:22;;;;;;;;;;;23.70;56.70;;;;;;6112420;28;20035;-40
2022/09/11 01:58:27;;;;;;;;;;;24.00;56.80;;;;;;6112365;28;19934;-39
2022/09/11 02:01:32;;;;;;;;;;;23.70;56.60;;;;;;6112387;28;19988;-41
2022/09/11 02:04:36;;;;;;;;;;;23.70;56.70;;;;;;6115558;28;19926;-41
2022/09/11 02:07:41;;;;;;;;;;;23.60;56.70;;;;;;6107614;28;19941;-39
2022/09/11 02:10:45;;;;;;;;;;;23.80;56.90;;;;;;6101166;28;19934;-39
2022/09/11 02:13:52;;;;;;;;;;;23.50;56.60;;;;;;6104536;28;19953;-40
2022/09/11 02:17:00;;;;;;;;;;;23.70;56.70;;;;;;6107683;28;20363;-39
2022/09/11 02:20:01;;;;;;;;;;;23.90;56.80;;;;;;6107074;28;19926;-43
2022/09/11 02:23:05;;;;;;;;;;;23.80;56.80;;;;;;6111283;28;20786;-42
2022/09/11 02:26:08;;;;;;;;;;;24.20;57.00;;;;;;6117095;28;20049;-41
2022/09/11 02:29:11;;;;;;;;;;;23.60;56.70;;;;;;6114801;28;20728;-41
2022/09/11 02:32:12;;;;;;;;;;;24.10;56.90;;;;;;6113023;28;19932;-40
2022/09/11 02:35:16;;;;;;;;;;;23.80;56.80;;;;;;6116919;28;19934;-39
2022/09/11 02:38:23;;;;;;;;;;;23.70;56.80;;;;;;6121121;28;20073;-42
2022/09/11 02:41:28;;;;;;;;;;;23.80;56.80;;;;;;6115856;28;19938;-39
2022/09/11 02:44:35;;;;;;;;;;;23.90;56.90;;;;;;6117309;28;19934;-41
2022/09/11 02:47:43;;;;;;;;;;;23.90;56.90;;;;;;6115265;28;19991;-41
2022/09/11 02:50:49;;;;;;;;;;;23.60;56.70;;;;;;6114378;28;19934;-40
2022/09/11 02:53:56;;;;;;;;;;;23.80;56.90;;;;;;6114383;28;19941;-41
2022/09/11 02:57:04;;;;;;;;;;;23.50;56.70;;;;;;6127528;28;20174;-40
2022/09/11 03:00:07;;;;;;;;;;;23.60;56.80;;;;;;6100721;28;20944;-40
2022/09/11 03:03:08;;;;;;;;;;;23.70;56.80;;;;;;6104673;28;19945;-39
2022/09/11 03:06:12;;;;;;;;;;;23.90;57.00;;;;;;6102269;28;20036;-40
2022/09/11 03:09:14;;;;;;;;;;;23.80;56.90;;;;;;6105985;28;20525;-40
2022/09/11 03:12:16;;;;;;;;;;;24.00;57.10;;;;;;6108134;28;19930;-41
2022/09/11 03:15:23;;;;;;;;;;;23.50;56.80;;;;;;6104440;28;20197;-41
2022/09/11 03:18:25;;;;;;;;;;;23.50;56.80;;;;;;6105443;28;20206;-40
2022/09/11 03:21:27;;;;;;;;;;;23.70;56.90;;;;;;6102125;28;20312;-40
2022/09/11 03:24:28;;;;;;;;;;;23.60;56.90;;;;;;6107371;28;20274;-39
2022/09/11 03:27:29;;;;;;;;;;;23.50;56.90;;;;;;6104024;28;20043;-39
2022/09/11 03:30:32;;;;;;;;;;;23.70;57.00;;;;;;6105981;28;20293;-38
2022/09/11 03:33:36;;;;;;;;;;;23.70;56.90;;;;;;6100899;28;20523;-40
2022/09/11 03:36:39;;;;;;;;;;;24.00;57.10;;;;;;6103219;28;20599;-39
2022/09/11 03:39:40;;;;;;;;;;;23.60;56.90;;;;;;6102413;28;20239;-40
2022/09/11 03:42:41;;;;;;;;;;;23.90;57.10;;;;;;6106050;28;20179;-41
2022/09/11 03:45:43;;;;;;;;;;;23.50;56.90;;;;;;6104690;28;20075;-39
2022/09/11 03:48:48;;;;;;;;;;;23.90;57.10;;;;;;6101722;28;20437;-39
2022/09/11 03:51:49;;;;;;;;;;;23.60;56.90;;;;;;6102264;28;20238;-41
2022/09/11 03:54:50;;;;;;;;;;;23.60;57.00;;;;;;6100064;28;19930;-40
2022/09/11 03:57:52;;;;;;;;;;;23.40;56.80;;;;;;6103810;28;20268;-42
2022/09/11 04:00:54;;;;;;;;;;;24.00;57.20;;;;;;6119534;28;20550;-40
2022/09/11 04:03:59;;;;;;;;;;;23.50;56.90;;;;;;6103639;28;19929;-40
2022/09/11 04:07:06;;;;;;;;;;;23.30;56.80;;;;;;6104344;28;19934;-38
2022/09/11 04:10:08;;;;;;;;;;;23.70;57.10;;;;;;6105418;28;20005;-41
2022/09/11 04:13:10;;;;;;;;;;;23.80;57.10;;;;;;6105822;28;20309;-42
2022/09/11 04:16:13;;;;;;;;;;;23.60;57.10;;;;;;6104791;28;20283;-39
2022/09/11 04:19:17;;;;;;;;;;;23.60;57.40;;;;;;6100982;28;20162;-41
2022/09/11 04:22:19;;;;;;;;;;;23.70;57.10;;;;;;6097243;28;20425;-40
2022/09/11 04:25:20;;;;;;;;;;;23.70;57.10;;;;;;6096860;28;20495;-41
2022/09/11 04:28:23;;;;;;;;;;;23.30;56.90;;;;;;6097250;28;20313;-39
2022/09/11 04:31:26;;;;;;;;;;;23.40;56.90;;;;;;6098775;28;19941;-39
2022/09/11 04:34:28;;;;;;;;;;;23.60;57.00;;;;;;6097493;28;20289;-40
2022/09/11 04:37:29;;;;;;;;;;;23.40;56.90;;;;;;6098950;28;20259;-41
2022/09/11 04:40:31;;;;;;;;;;;23.50;57.00;;;;;;6097991;28;20257;-41
2022/09/11 04:43:33;;;;;;;;;;;23.80;57.20;;;;;;6098562;28;20176;-39
2022/09/11 04:46:37;;;;;;;;;;;23.40;56.90;;;;;;6099534;28;19985;-38
2022/09/11 04:49:45;;;;;;;;;;;23.60;57.10;;;;;;6102542;28;20820;-39
2022/09/11 04:52:46;;;;;;;;;;;23.60;57.10;;;;;;6098761;28;20373;-39
2022/09/11 04:55:49;;;;;;;;;;;23.50;57.10;;;;;;6091269;28;20364;-40
2022/09/11 04:58:52;;;;;;;;;;;23.30;57.00;;;;;;6094378;28;20813;-40
2022/09/11 05:01:57;;;;;;;;;;;23.50;57.00;;;;;;6095367;28;21048;-39
2022/09/11 05:04:58;;;;;;;;;;;23.40;57.00;;;;;;6094175;28;20045;-40
2022/09/11 05:08:03;;;;;;;;;;;23.50;57.00;;;;;;6091890;28;19938;-39
2022/09/11 05:11:04;;;;;;;;;;;23.40;57.00;;;;;;6096161;28;20048;-39
2022/09/11 05:14:05;;;;;;;;;;;23.50;57.10;;;;;;6095043;28;20231;-41
2022/09/11 05:17:12;;;;;;;;;;;23.70;57.20;;;;;;6095282;28;19934;-39
2022/09/11 05:20:16;;;;;;;;;;;23.40;57.00;;;;;;6094754;28;20429;-41
2022/09/11 05:23:17;;;;;;;;;;;23.80;57.20;;;;;;6098183;28;19988;-39
2022/09/11 05:26:20;;;;;;;;;;;23.60;57.20;;;;;;6097403;28;20394;-41
2022/09/11 05:29:22;;;;;;;;;;;23.80;57.20;;;;;;6094974;28;20452;-39
2022/09/11 05:32:30;;;;;;;;;;;23.40;57.10;;;;;;6098438;28;20625;-39
2022/09/11 05:35:32;;;;;;;;;;;23.30;57.00;;;;;;6097033;28;20175;-42
2022/09/11 05:38:35;;;;;;;;;;;23.20;57.00;;;;;;6095757;28;20332;-39
2022/09/11 05:41:37;;;;;;;;;;;23.30;57.00;;;;;;6095913;28;19934;-42
2022/09/11 05:44:39;;;;;;;;;;;23.20;56.90;;;;;;6098257;28;20363;-39
2022/09/11 05:47:41;;;;;;;;;;;23.70;57.20;;;;;;6095717;28;20024;-43
2022/09/11 05:50:51;;;;;;;;;;;23.60;57.20;;;;;;6098853;28;20315;-41
2022/09/11 05:53:54;;;;;;;;;;;23.20;56.80;;;;;;6094604;28;20977;-40
2022/09/11 05:56:56;;;;;;;;;;;23.70;57.20;;;;;;6097882;28;19938;-40
2022/09/11 05:59:59;;;;;;;;;;;23.50;57.20;;;;;;6099642;28;20052;-39
2022/09/11 06:03:04;;;;;;;;;;;23.40;57.10;;;;;;6091543;28;19937;-40
2022/09/11 06:06:07;;;;;;;;;;;23.30;57.10;;;;;;6089197;28;19930;-39
2022/09/11 06:09:09;;;;;;;;;;;23.60;57.20;;;;;;6092395;28;19993;-41
2022/09/11 06:12:11;;;;;;;;;;;23.50;57.10;;;;;;6092913;28;19977;-40
2022/09/11 06:15:13;;;;;;;;;;;23.50;57.10;;;;;;6094367;28;20076;-40
2022/09/11 06:18:35;;;;;;;;;;;23.10;57.00;;;;;;6093396;28;19930;-41
2022/09/11 06:21:37;;;;;;;;;;;23.30;57.00;;;;;;6093822;28;20521;-41
2022/09/11 06:24:45;;;;;;;;;;;23.80;57.20;;;;;;6097467;28;20309;-39
2022/09/11 06:27:49;;;;;;;;;;;23.50;57.00;;;;;;6095681;28;20564;-39
2022/09/11 06:30:51;;;;;;;;;;;23.50;57.00;;;;;;6093051;28;19944;-39
2022/09/11 06:33:53;;;;;;;;;;;23.70;57.00;;;;;;6096648;28;20360;-43
2022/09/11 06:36:55;;;;;;;;;;;23.40;56.90;;;;;;6092434;28;20243;-40
2022/09/11 06:39:56;;;;;;;;;;;23.40;56.90;;;;;;6092850;28;20080;-39
2022/09/11 06:43:01;;;;;;;;;;;23.80;57.20;;;;;;6092398;28;20167;-40
2022/09/11 06:46:03;;;;;;;;;;;23.40;57.00;;;;;;6095155;28;20227;-39
2022/09/11 06:49:07;;;;;;;;;;;23.30;57.00;;;;;;6093785;28;20365;-40
2022/09/11 06:52:28;;;;;;;;;;;23.50;57.20;;;;;;6092157;28;19930;-39
2022/09/11 06:55:40;;;;;;;;;;;23.10;57.00;;;;;;6094319;28;20515;-41
2022/09/11 06:58:46;;;;;;;;;;;23.60;57.30;;;;;;6089922;28;20045;-39
2022/09/11 07:01:47;;;;;;;;;;;23.40;57.10;;;;;;6088326;28;19938;-40
2022/09/11 07:04:52;;;;;;;;;;;23.80;57.30;;;;;;6090945;28;20390;-39
2022/09/11 07:07:55;;;;;;;;;;;23.50;57.00;;;;;;6091484;28;19934;-39
2022/09/11 07:11:01;;;;;;;;;;;23.50;56.90;;;;;;6090642;28;20333;-41
2022/09/11 07:14:05;;;;;;;;;;;23.30;56.80;;;;;;6090827;28;20048;-40
2022/09/11 07:17:11;;;;;;;;;;;23.50;57.00;;;;;;6088952;28;19934;-40
2022/09/11 07:20:16;;;;;;;;;;;23.90;57.20;;;;;;6090871;28;20440;-39
2022/09/11 07:23:18;;;;;;;;;;;23.60;57.00;;;;;;6093047;28;19941;-39
2022/09/11 07:26:21;;;;;;;;;;;23.70;57.00;;;;;;6090346;28;20072;-39
2022/09/11 07:29:24;;;;;;;;;;;23.40;56.90;;;;;;6091449;28;19942;-39
2022/09/11 07:32:26;;;;;;;;;;;23.40;56.90;;;;;;6091945;28;20741;-39
2022/09/11 07:35:28;;;;;;;;;;;23.40;56.90;;;;;;6093246;28;20866;-40
2022/09/11 07:38:31;;;;;;;;;;;23.30;56.70;;;;;;6091348;28;20355;-39
2022/09/11 07:41:34;;;;;;;;;;;23.70;56.90;;;;;;6088357;28;20431;-41
2022/09/11 07:44:40;;;;;;;;;;;23.30;56.70;;;;;;6091624;28;20707;-39
2022/09/11 07:47:42;;;;;;;;;;;23.80;57.00;;;;;;6087617;28;19934;-39
2022/09/11 07:50:54;;;;;;;;;;;23.80;57.00;;;;;;6090565;28;20882;-39
2022/09/11 07:53:58;;;;;;;;;;;23.80;56.90;;;;;;6089217;28;20152;-39
2022/09/11 07:57:03;;;;;;;;;;;23.30;56.60;;;;;;6089938;28;19930;-39
2022/09/11 08:00:06;;;;;;;;;;;23.40;56.60;;;;;;6091579;28;20058;-42
2022/09/11 08:03:20;;;;;;;;;;;23.70;56.70;;;;;;6090561;28;20354;-42
2022/09/11 08:06:26;;;;;;;;;;;23.50;56.80;;;;;;6086602;28;19930;-41
2022/09/11 08:09:28;;;;;;;;;;;23.30;56.60;;;;;;6086155;28;19934;-40
2022/09/11 08:12:33;;;;;;;;;;;23.30;56.60;;;;;;6090800;28;19975;-38
2022/09/11 08:15:34;;;;;;;;;;;23.40;56.70;;;;;;6087602;28;20007;-40
2022/09/11 08:18:38;;;;;;;;;;;23.60;56.80;;;;;;6092104;28;20171;-39
2022/09/11 08:21:40;;;;;;;;;;;23.80;56.80;;;;;;6093289;28;20260;-40
2022/09/11 08:24:42;;;;;;;;;;;23.40;56.70;;;;;;6094340;28;20116;-40
2022/09/11 08:27:46;;;;;;;;;;;23.30;56.60;;;;;;6092799;28;19935;-39
2022/09/11 08:30:55;;;;;;;;;;;23.70;56.80;;;;;;6089402;28;19930;-39
2022/09/11 08:33:57;;;;;;;;;;;23.40;56.60;;;;;;6086582;28;20393;-39
2022/09/11 08:36:59;;;;;;;;;;;23.50;56.70;;;;;;6090556;28;19990;-40
2022/09/11 08:40:03;;;;;;;;;;;23.70;56.70;;;;;;6089505;28;20140;-41
2022/09/11 08:43:13;;;;;;;;;;;23.50;56.60;;;;;;6090240;28;20203;-40
2022/09/11 08:46:15;;;;;;;;;;;23.50;56.60;;;;;;6084501;28;20049;-39
2022/09/11 08:49:21;;;;;;;;;;;23.70;56.80;;;;;;6092283;28;19940;-40
2022/09/11 08:52:22;;;;;;;;;;;23.40;56.60;;;;;;6090812;28;20670;-41
2022/09/11 08:55:29;;;;;;;;;;;21.90;55.70;;;;;;6092934;28;20126;-41
2022/09/11 08:58:35;;;;;;;;;;;23.40;56.50;;;;;;6092077;28;20581;-39
2022/09/11 09:01:45;;;;;;;;;;;23.80;56.70;;;;;;6090439;28;20414;-39
2022/09/11 09:04:57;;;;;;;;;;;23.40;56.50;;;;;;6088116;28;19934;-39
2022/09/11 09:08:04;;;;;;;;;;;23.80;56.60;;;;;;6088895;28;20666;-39
2022/09/11 09:11:13;;;;;;;;;;;23.90;56.50;;;;;;6087880;28;19977;-39
2022/09/11 09:14:28;;;;;;;;;;;23.80;56.50;;;;;;6091281;28;19934;-40
2022/09/11 09:17:34;;;;;;;;;;;23.90;56.50;;;;;;6091844;28;20335;-41
2022/09/11 09:20:38;;;;;;;;;;;24.00;56.50;;;;;;6088165;28;19935;-39
2022/09/11 09:23:43;;;;;;;;;;;23.40;56.20;;;;;;6090922;28;19944;-39
2022/09/11 09:26:49;;;;;;;;;;;23.80;56.30;;;;;;6089802;28;19953;-42
2022/09/11 09:29:53;;;;;;;;;;;23.90;56.30;;;;;;6088393;28;20268;-41
2022/09/11 09:32:58;;;;;;;;;;;24.00;56.30;;;;;;6091223;28;20006;-39
2022/09/11 09:36:10;;;;;;;;;;;24.00;56.30;;;;;;6091583;28;20176;-39
2022/09/11 09:39:13;;;;;;;;;;;23.90;56.80;;;;;;6089857;28;20152;-39
2022/09/11 09:42:23;;;;;;;;;;;24.10;56.20;;;;;;6092192;28;19934;-39
2022/09/11 09:45:32;;;;;;;;;;;24.20;56.30;;;;;;6095907;28;20130;-40
2022/09/11 09:48:38;;;;;;;;;;;23.90;56.00;;;;;;6091925;28;20304;-42
2022/09/11 09:51:40;;;;;;;;;;;24.00;56.10;;;;;;6091061;28;20048;-39
2022/09/11 09:54:42;;;;;;;;;;;24.30;56.20;;;;;;6094809;28;20417;-40
2022/09/11 09:57:43;;;;;;;;;;;24.00;56.00;;;;;;6094278;28;20173;-41
2022/09/11 10:00:45;;;;;;;;;;;24.00;56.10;;;;;;6090850;28;20061;-39
2022/09/11 10:04:05;;;;;;;;;;;24.20;56.10;;;;;;6089761;28;20009;-39
2022/09/11 10:07:09;;;;;;;;;;;24.00;56.00;;;;;;6091432;28;20168;-39
2022/09/11 10:10:19;;;;;;;;;;;24.10;56.00;;;;;;6089446;28;20052;-42
2022/09/11 10:13:25;;;;;;;;;;;24.20;56.00;;;;;;6091146;28;20557;-41
2022/09/11 10:16:27;;;;;;;;;;;24.30;56.10;;;;;;6089891;28;20031;-41
2022/09/11 10:19:33;;;;;;;;;;;24.20;56.00;;;;;;6089143;28;20299;-39
2022/09/11 10:22:35;;;;;;;;;;;24.10;56.00;;;;;;6085511;28;20737;-39
2022/09/11 10:25:46;;;;;;;;;;;24.40;56.10;;;;;;6089022;28;20102;-39
2022/09/11 10:28:48;;;;;;;;;;;24.20;56.00;;;;;;6091060;28;19943;-41
2022/09/11 10:31:50;;;;;;;;;;;23.90;55.80;;;;;;6089307;28;20135;-40
2022/09/11 10:34:52;;;;;;;;;;;23.90;55.80;;;;;;6094771;28;20221;-42
2022/09/11 10:38:06;;;;;;;;;;;24.30;56.00;;;;;;6092430;28;20103;-39
2022/09/11 10:41:13;;;;;;;;;;;24.40;56.00;;;;;;6090762;28;20513;-39
2022/09/11 10:44:16;;;;;;;;;;;23.80;55.70;;;;;;6092171;28;21049;-40
2022/09/11 10:47:21;;;;;;;;;;;24.20;56.00;;;;;;6093153;28;19978;-39
2022/09/11 10:50:24;;;;;;;;;;;24.20;55.90;;;;;;6092330;28;20135;-39
2022/09/11 10:53:26;;;;;;;;;;;24.20;55.90;;;;;;6090255;28;20346;-40
2022/09/11 10:56:28;;;;;;;;;;;23.90;55.70;;;;;;6091160;28;20381;-39
2022/09/11 10:59:31;;;;;;;;;;;24.30;55.90;;;;;;6090326;28;20352;-39
2022/09/11 11:02:34;;;;;;;;;;;24.30;55.90;;;;;;6093775;28;20029;-39
2022/09/11 11:05:39;;;;;;;;;;;24.50;56.00;;;;;;6089515;28;19930;-39
2022/09/11 11:08:58;;;;;;;;;;;24.20;55.80;;;;;;6088488;28;20459;-39
2022/09/11 11:12:08;;;;;;;;;;;24.50;55.90;;;;;;6085674;28;19931;-39
2022/09/11 11:15:26;;;;;;;;;;;24.60;56.60;;;;;;6091480;28;20730;-40
2022/09/11 11:18:37;;;;;;;;;;;24.50;55.90;;;;;;6089654;28;20417;-39
2022/09/11 11:21:46;;;;;;;;;;;24.70;56.10;;;;;;6091526;28;20144;-39
2022/09/11 11:24:58;;;;;;;;;;;24.40;55.90;;;;;;6091715;28;20363;-39
2022/09/11 11:28:10;;;;;;;;;;;24.20;55.70;;;;;;6094040;28;21166;-41
2022/09/11 11:31:15;;;;;;;;;;;24.40;55.90;;;;;;6092789;28;20222;-38
2022/09/11 11:34:22;;;;;;;;;;;24.30;55.80;;;;;;6092102;28;20746;-42
2022/09/11 11:37:27;;;;;;;;;;;24.60;55.90;;;;;;6090768;28;20462;-40
2022/09/11 11:40:30;;;;;;;;;;;24.20;55.60;;;;;;6093267;28;19930;-41
2022/09/11 11:43:33;;;;;;;;;;;24.30;55.70;;;;;;6091986;28;20139;-40
2022/09/11 11:46:37;;;;;;;;;;;24.20;55.70;;;;;;6091037;28;20735;-40
2022/09/11 11:49:44;;;;;;;;;;;24.40;55.70;;;;;;6095495;28;20199;-40
2022/09/11 11:52:52;;;;;;;;;;;24.40;55.80;;;;;;6092575;28;20308;-40
2022/09/11 11:55:59;;;;;;;;;;;24.40;55.70;;;;;;6089776;28;19930;-40
2022/09/11 11:59:09;;;;;;;;;;;24.50;55.70;;;;;;6087330;28;19940;-39
2022/09/11 12:02:14;;;;;;;;;;;24.60;55.80;;;;;;6086990;28;20265;-40
2022/09/11 12:05:17;;;;;;;;;;;24.30;55.70;;;;;;6085845;28;21527;-40
2022/09/11 12:08:19;;;;;;;;;;;24.50;55.70;;;;;;6089733;28;20016;-39
2022/09/11 12:11:25;;;;;;;;;;;24.20;55.60;;;;;;6088760;28;19941;-39
2022/09/11 12:14:28;;;;;;;;;;;24.30;55.60;;;;;;6091425;28;19930;-38
2022/09/11 12:17:31;;;;;;;;;;;24.30;55.60;;;;;;6089423;28;19934;-40
2022/09/11 12:20:35;;;;;;;;;;;24.00;55.50;;;;;;6085006;28;20069;-39
2022/09/11 12:23:52;;;;;;;;;;;23.90;55.40;;;;;;6078163;28;19934;-39
2022/09/11 12:27:02;;;;;;;;;;;24.30;55.60;;;;;;6085448;28;20101;-39
2022/09/11 12:30:08;;;;;;;;;;;24.40;55.70;;;;;;6070989;28;20386;-39
2022/09/11 12:33:31;;;;;;;;;;;24.60;55.70;;;;;;6075637;28;19934;-41
2022/09/11 12:36:42;;;;;;;;;;;24.30;55.60;;;;;;6084057;28;20104;-40
2022/09/11 12:39:49;;;;;;;;;;;24.40;55.60;;;;;;6072516;28;20520;-39
2022/09/11 12:42:55;;;;;;;;;;;24.70;55.80;;;;;;6075755;28;19960;-42
2022/09/11 12:45:57;;;;;;;;;;;24.10;55.40;;;;;;6076852;28;20183;-39
2022/09/11 12:49:05;;;;;;;;;;;24.70;55.80;;;;;;6082287;28;20228;-40
2022/09/11 12:52:26;;;;;;;;;;;24.70;55.80;;;;;;6077114;28;20005;-42
2022/09/11 12:55:30;;;;;;;;;;;24.50;55.60;;;;;;6099128;28;19937;-39
2022/09/11 12:58:34;;;;;;;;;;;24.30;55.50;;;;;;6083314;28;20667;-40
2022/09/11 13:01:42;;;;;;;;;;;24.50;55.60;;;;;;6080834;28;20045;-41
2022/09/11 13:04:44;;;;;;;;;;;24.70;55.70;;;;;;6081794;28;19930;-40
2022/09/11 13:07:49;;;;;;;;;;;24.50;55.60;;;;;;6081592;28;20113;-39
2022/09/11 13:10:51;;;;;;;;;;;24.60;55.70;;;;;;6078505;28;20272;-39
2022/09/11 13:13:58;;;;;;;;;;;24.30;55.50;;;;;;6085457;28;20053;-40
2022/09/11 13:17:01;;;;;;;;;;;24.30;55.50;;;;;;6083585;28;20058;-42
2022/09/11 13:20:20;;;;;;;;;;;24.60;55.60;;;;;;6081626;28;20061;-40
2022/09/11 13:23:21;;;;;;;;;;;24.40;55.50;;;;;;6078219;28;20056;-39
2022/09/11 13:26:24;;;;;;;;;;;24.70;55.70;;;;;;6079053;28;20317;-39
2022/09/11 13:29:28;;;;;;;;;;;24.10;55.40;;;;;;6075300;28;20719;-39
2022/09/11 13:32:34;;;;;;;;;;;24.80;55.60;;;;;;6078129;28;20866;-39
2022/09/11 13:35:38;;;;;;;;;;;24.70;55.60;;;;;;6069152;28;19949;-39
2022/09/11 13:38:42;;;;;;;;;;;24.80;55.60;;;;;;6073581;28;20042;-40
2022/09/11 13:41:45;;;;;;;;;;;24.70;55.60;;;;;;6076258;28;20410;-39
2022/09/11 13:44:48;;;;;;;;;;;24.20;55.30;;;;;;6083607;28;20263;-39
2022/09/11 13:47:53;;;;;;;;;;;24.40;55.40;;;;;;6076883;28;19934;-39
2022/09/11 13:50:57;;;;;;;;;;;24.70;55.60;;;;;;6082674;28;20835;-40
2022/09/11 13:54:04;;;;;;;;;;;24.50;55.40;;;;;;6082913;28;20065;-39
2022/09/11 13:57:15;;;;;;;;;;;24.90;55.60;;;;;;6083425;28;20018;-40
2022/09/11 14:00:31;;;;;;;;;;;24.60;55.50;;;;;;6072903;28;20263;-39
2022/09/11 14:03:33;;;;;;;;;;;24.80;55.60;;;;;;6080924;28;20667;-41
2022/09/11 14:06:35;;;;;;;;;;;24.80;55.60;;;;;;6088472;28;19934;-40
2022/09/11 14:09:36;;;;;;;;;;;24.70;55.50;;;;;;6080685;28;20270;-40
2022/09/11 14:12:46;;;;;;;;;;;24.70;55.50;;;;;;6082952;28;20957;-41
2022/09/11 14:15:49;;;;;;;;;;;24.70;55.50;;;;;;6078505;28;19934;-39
2022/09/11 14:18:54;;;;;;;;;;;24.50;55.30;;;;;;6082272;28;20139;-40
2022/09/11 14:22:00;;;;;;;;;;;24.70;55.40;;;;;;6087797;28;19977;-40
2022/09/11 14:25:03;;;;;;;;;;;24.80;55.50;;;;;;6083714;28;20306;-39
2022/09/11 14:28:06;;;;;;;;;;;24.60;55.30;;;;;;6075589;28;20582;-40
2022/09/11 14:31:08;;;;;;;;;;;24.90;55.50;;;;;;6083063;28;20268;-39
2022/09/11 14:34:14;;;;;;;;;;;24.60;55.40;;;;;;6082383;28;20454;-40
2022/09/11 14:37:16;;;;;;;;;;;25.20;55.70;;;;;;6083742;28;19934;-39
2022/09/11 14:40:18;;;;;;;;;;;24.50;55.30;;;;;;6084195;28;19941;-41
2022/09/11 14:43:24;;;;;;;;;;;24.80;55.50;;;;;;6105965;28;21757;-39
2022/09/11 14:46:25;;;;;;;;;;;24.60;55.30;;;;;;6086318;28;20040;-40
2022/09/11 14:49:28;;;;;;;;;;;24.40;55.20;;;;;;6086801;28;19934;-41
2022/09/11 14:52:29;;;;;;;;;;;24.80;55.40;;;;;;6087460;28;20692;-39
2022/09/11 14:55:32;;;;;;;;;;;25.00;55.50;;;;;;6084924;28;19934;-39
2022/09/11 14:58:33;;;;;;;;;;;24.80;55.40;;;;;;6080055;28;20087;-39
2022/09/11 15:01:35;;;;;;;;;;;24.80;55.40;;;;;;6079373;28;20114;-39
2022/09/11 15:04:37;;;;;;;;;;;24.60;55.30;;;;;;6080217;28;19935;-39
2022/09/11 15:07:39;;;;;;;;;;;24.90;55.50;;;;;;6080970;28;20121;-39
2022/09/11 15:10:40;;;;;;;;;;;24.80;55.40;;;;;;6079122;28;20942;-39
2022/09/11 15:13:43;;;;;;;;;;;24.90;55.40;;;;;;6079451;28;20060;-38
2022/09/11 15:17:05;;;;;;;;;;;24.70;55.40;;;;;;6079229;28;20070;-39
2022/09/11 15:20:09;;;;;;;;;;;25.00;55.50;;;;;;6078401;28;20485;-39
2022/09/11 15:23:10;;;;;;;;;;;25.00;55.40;;;;;;6081533;28;20402;-39
2022/09/11 15:26:12;;;;;;;;;;;24.80;55.30;;;;;;6080667;28;20336;-40
2022/09/11 15:29:14;;;;;;;;;;;24.90;55.40;;;;;;6079784;28;20298;-40
2022/09/11 15:32:15;;;;;;;;;;;24.70;55.30;;;;;;6082285;28;21196;-39
2022/09/11 15:35:17;;;;;;;;;;;25.10;55.50;;;;;;6082211;28;20203;-39
2022/09/11 15:38:19;;;;;;;;;;;24.70;55.30;;;;;;6086581;28;20402;-39
2022/09/11 15:41:21;;;;;;;;;;;24.80;55.30;;;;;;6079611;28;20260;-39
2022/09/11 15:44:23;;;;;;;;;;;24.90;55.40;;;;;;6079965;28;20198;-39
2022/09/11 15:47:24;;;;;;;;;;;24.90;55.30;;;;;;6083593;28;20265;-39
2022/09/11 15:50:28;;;;;;;;;;;25.00;55.50;;;;;;6087912;28;19937;-39
2022/09/11 15:53:31;;;;;;;;;;;24.70;55.30;;;;;;6082312;28;19934;-41
2022/09/11 15:56:34;;;;;;;;;;;24.90;55.40;;;;;;6085966;28;19941;-40
2022/09/11 15:59:35;;;;;;;;;;;24.80;55.30;;;;;;6090018;28;20605;-39
2022/09/11 16:02:36;;;;;;;;;;;24.50;55.10;;;;;;6096758;28;19941;-39
2022/09/11 16:05:41;;;;;;;;;;;24.90;55.30;;;;;;6085037;28;19978;-40
2022/09/11 16:08:42;;;;;;;;;;;25.00;55.40;;;;;;6100880;28;19952;-41
2022/09/11 16:11:44;;;;;;;;;;;24.90;55.30;;;;;;6101933;28;19930;-39
2022/09/11 16:14:46;;;;;;;;;;;24.90;55.30;;;;;;6098645;28;19940;-38
2022/09/11 16:17:47;;;;;;;;;;;24.90;55.30;;;;;;6098152;28;20016;-40
2022/09/11 16:20:56;;;;;;;;;;;25.00;55.30;;;;;;6103827;28;20041;-39
2022/09/11 16:24:05;;;;;;;;;;;25.00;55.30;;;;;;6100244;28;19934;-40
2022/09/11 16:27:08;;;;;;;;;;;24.80;55.30;;;;;;6103763;28;20972;-39
2022/09/11 16:30:10;;;;;;;;;;;24.70;55.10;;;;;;6096651;28;19934;-40
2022/09/11 16:33:31;;;;;;;;;;;24.80;55.20;;;;;;6086356;28;19934;-40
2022/09/11 16:36:37;;;;;;;;;;;24.90;55.20;;;;;;6098891;28;20178;-39
2022/09/11 16:39:38;;;;;;;;;;;25.20;55.40;;;;;;6106085;28;19934;-39
2022/09/11 16:42:40;;;;;;;;;;;24.90;55.30;;;;;;6099726;28;19930;-41
2022/09/11 16:45:48;;;;;;;;;;;25.00;55.30;;;;;;6099799;28;19934;-40
2022/09/11 16:48:50;;;;;;;;;;;24.90;55.20;;;;;;6104703;28;20871;-39
2022/09/11 16:51:56;;;;;;;;;;;25.00;55.20;;;;;;6101974;28;19981;-42
2022/09/11 16:55:01;;;;;;;;;;;24.90;55.10;;;;;;6099146;28;19926;-41
2022/09/11 16:58:02;;;;;;;;;;;24.90;55.10;;;;;;6099260;28;20025;-40
2022/09/11 17:01:04;;;;;;;;;;;25.00;55.10;;;;;;6102421;28;19934;-40
2022/09/11 17:04:05;;;;;;;;;;;24.80;55.00;;;;;;6101612;28;20826;-39
2022/09/11 17:07:07;;;;;;;;;;;24.90;55.00;;;;;;6100231;28;19954;-39
2022/09/11 17:10:09;;;;;;;;;;;24.90;55.00;;;;;;6098732;28;20067;-39
2022/09/11 17:13:11;;;;;;;;;;;25.00;55.00;;;;;;6090146;28;20939;-39
2022/09/11 17:16:13;;;;;;;;;;;25.20;55.10;;;;;;6089439;28;20388;-39
2022/09/11 17:19:17;;;;;;;;;;;25.30;55.20;;;;;;6085284;28;20189;-39
2022/09/11 17:22:19;;;;;;;;;;;24.90;55.00;;;;;;6085013;28;20269;-41
2022/09/11 17:25:21;;;;;;;;;;;24.80;54.90;;;;;;6081444;28;20308;-39
2022/09/11 17:28:22;;;;;;;;;;;25.10;55.10;;;;;;6086278;28;20930;-39
2022/09/11 17:31:24;;;;;;;;;;;24.90;54.90;;;;;;6088433;28;20140;-39
2022/09/11 17:34:26;;;;;;;;;;;25.00;54.90;;;;;;6085569;28;20103;-40
2022/09/11 17:37:28;;;;;;;;;;;25.20;55.10;;;;;;6086678;28;20159;-38
2022/09/11 17:40:30;;;;;;;;;;;25.10;55.10;;;;;;6092046;28;20466;-39
2022/09/11 17:43:32;;;;;;;;;;;25.10;55.00;;;;;;6090912;28;20100;-40
2022/09/11 17:46:34;;;;;;;;;;;24.90;54.90;;;;;;6086708;28;19957;-40
2022/09/11 17:49:35;;;;;;;;;;;24.90;54.80;;;;;;6087816;28;19957;-39
2022/09/11 17:52:37;;;;;;;;;;;25.00;55.00;;;;;;6084466;28;19930;-39